Terminal Aerodrome Forecast
Issued by NWS

Home | Current Version | Previous Version | Text Only | Print | Product List | Glossary On
Versions: 1 2 3 4 5 6 7 8 9 10 11 12 13 14 15 16 17
000
FTUS41 KCAR 031735 AAB
TAFBHB
TAF AMD
KBHB 031735Z 0318/0418 VRB05KT P6SM OVC025
     FM032100 VRB04KT P6SM BKN040
      TEMPO 0408/0412 OVC015
     FM041200 05006KT P6SM SCT015=

USA.gov is the U.S. government's official web portal to all federal, state and local government web resources and services.